createdAt,value
2019-03-23T00:01:09.360Z,143300.94
2019-03-23T00:06:05.292Z,143220.06
2019-03-23T00:11:01.219Z,143190.81
2019-03-23T00:15:57.237Z,143149.83
2019-03-23T00:20:53.160Z,143112.37
2019-03-23T00:25:49.088Z,143105.31
2019-03-23T00:30:44.983Z,143261.06
2019-03-23T00:35:41.016Z,143119.37
2019-03-23T00:40:36.947Z,143104.16
2019-03-23T00:45:32.965Z,143063.19
2019-03-23T00:50:28.894Z,143032.75
2019-03-23T00:55:24.846Z,143133.41
2019-03-23T01:00:20.878Z,143079.56
2019-03-23T01:05:16.803Z,143153.34
2019-03-23T01:10:13.065Z,143059.69
2019-03-23T01:15:12.471Z,143024.59
2019-03-23T01:20:12.135Z,143127.59
2019-03-23T01:25:09.016Z,143229.44
2019-03-23T01:30:10.758Z,143165.06
2019-03-23T01:35:07.279Z,143065.55
2019-03-23T01:40:05.011Z,143187.31
2019-03-23T01:45:01.121Z,143196.67
2019-03-23T01:49:57.042Z,143105.31
2019-03-23T01:54:52.956Z,143119.37
2019-03-23T01:59:48.884Z,143136.95
2019-03-23T02:04:44.885Z,143032.75
2019-03-23T02:09:40.809Z,142925.12
2019-03-23T02:14:36.736Z,142888.84
2019-03-23T02:19:32.664Z,142885.34
2019-03-23T02:24:29.299Z,142892.34
2019-03-23T02:29:25.186Z,143021.08
2019-03-23T02:34:21.111Z,143021.08
2019-03-23T02:39:17.032Z,143022.23
2019-03-23T02:44:12.965Z,142967.22
2019-03-23T02:49:08.895Z,142997.66
2019-03-23T02:54:11.101Z,142940.34
2019-03-23T02:59:07.127Z,142940.34
2019-03-23T03:04:03.167Z,142913.41
2019-03-23T03:08:59.086Z,142847.91
2019-03-23T03:13:55.006Z,142920.42
2019-03-23T03:18:50.924Z,142849.11
2019-03-23T03:23:48.520Z,142811.69
2019-03-23T03:28:44.546Z,142740.34
2019-03-23T03:33:40.485Z,142893.55
2019-03-23T03:38:36.420Z,142866.62
2019-03-23T03:43:32.352Z,142784.77
2019-03-23T03:48:28.290Z,142723.94
2019-03-23T03:53:24.235Z,142686.53
2019-03-23T03:58:20.181Z,142686.53
2019-03-23T04:03:16.105Z,142661.98
2019-03-23T04:08:12.350Z,142660.78
2019-03-23T04:13:08.353Z,142810.48
2019-03-23T04:18:04.333Z,142808.13
2019-03-23T04:23:00.265Z,142821.03
2019-03-23T04:27:56.210Z,142766.06
2019-03-23T04:32:52.126Z,142699.39
2019-03-23T04:37:48.161Z,142701.69
2019-03-23T04:42:44.079Z,142822.19
2019-03-23T04:47:40.134Z,142833.89
2019-03-23T04:52:36.156Z,142833.89
2019-03-23T04:57:32.092Z,142870.12
2019-03-23T05:02:28.081Z,142897.05
2019-03-23T05:07:24.004Z,142916.91
2019-03-23T05:12:19.947Z,142928.63
2019-03-23T05:17:15.867Z,142946.19
2019-03-23T05:22:11.766Z,142957.86
2019-03-23T05:27:07.691Z,142967.22
2019-03-23T05:32:03.739Z,142995.30
2019-03-23T05:36:59.677Z,142971.92
2019-03-23T05:41:55.595Z,142957.86
2019-03-23T05:46:51.524Z,143002.36
2019-03-23T05:51:47.440Z,142953.20
2019-03-23T05:56:43.444Z,142920.42
2019-03-23T06:01:39.359Z,142921.63
2019-03-23T06:06:35.267Z,142928.63
2019-03-23T06:11:31.198Z,142981.28
2019-03-23T06:16:27.115Z,142998.81
2019-03-23T06:21:23.196Z,142969.56
2019-03-23T06:26:19.110Z,142964.91
2019-03-23T06:31:15.069Z,142921.63
2019-03-23T06:36:10.995Z,142907.56
2019-03-23T06:41:06.932Z,142875.97
2019-03-23T06:46:02.913Z,142868.97
2019-03-23T06:50:58.843Z,142854.91
2019-03-23T06:55:54.762Z,142866.62
2019-03-23T07:00:50.708Z,142873.62
2019-03-23T07:05:46.748Z,142849.11
2019-03-23T07:10:42.665Z,142857.27
2019-03-23T07:15:38.582Z,142864.27
2019-03-23T07:20:34.494Z,142878.33
2019-03-23T07:25:30.417Z,142843.25
2019-03-23T07:30:26.342Z,142819.84
2019-03-23T07:35:22.256Z,142819.84
2019-03-23T07:40:18.189Z,142808.13
2019-03-23T07:45:14.801Z,142791.77
2019-03-23T07:50:12.026Z,142794.13
2019-03-23T07:55:12.517Z,142825.69
2019-03-23T08:00:11.568Z,142819.84
2019-03-23T08:05:07.650Z,142845.56
2019-03-23T08:10:04.627Z,142853.75
2019-03-23T08:15:04.582Z,142866.62
2019-03-23T08:20:00.512Z,142868.97
2019-03-23T08:25:00.135Z,142909.91
2019-03-23T08:29:56.218Z,142885.34
2019-03-23T08:34:52.130Z,142897.05
2019-03-23T08:39:48.976Z,142984.78
2019-03-23T08:44:44.880Z,142993.00
2019-03-23T08:49:40.830Z,143093.64
2019-03-23T08:54:37.637Z,143088.94
2019-03-23T08:59:33.553Z,143045.63
2019-03-23T09:04:29.471Z,143074.91
2019-03-23T09:09:25.502Z,143135.77
2019-03-23T09:14:23.461Z,143177.94
2019-03-23T09:19:19.255Z,143163.86
2019-03-23T09:24:21.206Z,143191.97
2019-03-23T09:29:17.248Z,143189.61
2019-03-23T09:34:13.160Z,143238.81
2019-03-23T09:39:09.105Z,143209.55
2019-03-23T09:44:05.021Z,143221.22
2019-03-23T09:49:01.056Z,143276.28
2019-03-23T09:53:57.020Z,143300.94
2019-03-23T09:58:54.829Z,143333.72
2019-03-23T10:03:50.844Z,143346.59
2019-03-23T10:08:46.762Z,143324.34
2019-03-23T10:13:45.017Z,143387.66
2019-03-23T10:18:40.932Z,143411.06
2019-03-23T10:23:43.631Z,143484.92
2019-03-23T10:28:39.649Z,143595.13
2019-03-23T10:33:35.574Z,143642.03
2019-03-23T10:38:31.549Z,143566.98
2019-03-23T10:43:27.463Z,143609.17
2019-03-23T10:48:24.434Z,143577.52
2019-03-23T10:53:23.182Z,143679.56
2019-03-23T10:58:18.300Z,143634.97
2019-03-23T11:03:14.298Z,143690.11
2019-03-23T11:08:14.989Z,143674.84
2019-03-23T11:13:11.535Z,143637.31
2019-03-23T11:18:08.435Z,143728.80
2019-03-23T11:23:06.802Z,143687.75
2019-03-23T11:28:03.029Z,143731.16
2019-03-23T11:32:59.374Z,143786.38
2019-03-23T11:37:56.020Z,143778.14
2019-03-23T11:42:56.707Z,143829.80
2019-03-23T11:47:54.892Z,143855.59
2019-03-23T11:52:50.824Z,143997.64
2019-03-23T11:57:48.035Z,144064.56
2019-03-23T12:02:43.959Z,144104.56
2019-03-23T12:07:39.894Z,144032.86
2019-03-23T12:12:36.691Z,144325.45
2019-03-23T12:17:35.789Z,143991.77
2019-03-23T12:22:33.359Z,143965.94
2019-03-23T12:27:31.636Z,144337.22
2019-03-23T12:32:28.696Z,144247.91
2019-03-23T12:37:24.656Z,144346.63
2019-03-23T12:42:20.560Z,144271.41
2019-03-23T12:47:16.481Z,144457.19
2019-03-23T12:52:12.491Z,144628.97
2019-03-23T12:57:08.429Z,144157.44
2019-03-23T13:02:04.488Z,144252.59
2019-03-23T13:07:00.509Z,144286.69
2019-03-23T13:11:56.424Z,144316.05
2019-03-23T13:16:52.396Z,144273.75
2019-03-23T13:21:49.324Z,144327.81
2019-03-23T13:26:45.348Z,144256.11
2019-03-23T13:31:41.275Z,144372.48
2019-03-23T13:36:37.188Z,144224.39
2019-03-23T13:41:33.109Z,144304.33
2019-03-23T13:46:29.035Z,144266.72
2019-03-23T13:51:25.058Z,144337.22
2019-03-23T13:56:21.053Z,144349.00
2019-03-23T14:01:16.989Z,144225.59
2019-03-23T14:06:13.006Z,144303.13
2019-03-23T14:11:08.934Z,144325.45
2019-03-23T14:16:04.911Z,144254.95
2019-03-23T14:21:00.817Z,144205.59
2019-03-23T14:25:56.741Z,144271.41
2019-03-23T14:30:52.702Z,144285.53
2019-03-23T14:35:48.639Z,144334.86
2019-03-23T14:40:44.564Z,144287.84
2019-03-23T14:45:40.614Z,144229.11
2019-03-23T14:50:36.674Z,144216.19
2019-03-23T14:55:32.740Z,144238.52
2019-03-23T15:00:30.480Z,144224.39
2019-03-23T15:05:26.448Z,144252.59
2019-03-23T15:10:22.502Z,144233.78
2019-03-23T15:15:18.478Z,144226.75
2019-03-23T15:20:14.452Z,144280.80
2019-03-23T15:25:10.671Z,144216.19
2019-03-23T15:30:06.868Z,144229.11
2019-03-23T15:35:06.146Z,144222.08
2019-03-23T15:40:04.875Z,144216.19
2019-03-23T15:45:00.884Z,144240.83
2019-03-23T15:49:56.812Z,144217.34
2019-03-23T15:54:53.581Z,144190.31
2019-03-23T15:59:49.560Z,144175.06
2019-03-23T16:04:45.567Z,144156.28
2019-03-23T16:09:41.608Z,144189.14
2019-03-23T16:14:37.634Z,144203.28
2019-03-23T16:19:33.601Z,144196.19
2019-03-23T16:24:33.305Z,144222.08
2019-03-23T16:29:29.203Z,144218.50
2019-03-23T16:34:25.158Z,144205.59
2019-03-23T16:39:21.092Z,144227.91
2019-03-23T16:44:17.012Z,144205.59
2019-03-23T16:49:12.923Z,144167.98
2019-03-23T16:54:11.872Z,144137.47
2019-03-23T16:59:07.990Z,144132.75
2019-03-23T17:04:03.955Z,144104.56
2019-03-23T17:08:59.964Z,144078.69
2019-03-23T17:13:55.991Z,144073.97
2019-03-23T17:18:51.945Z,144111.59
2019-03-23T17:23:48.013Z,144103.41
2019-03-23T17:28:43.928Z,144121.00
2019-03-23T17:33:39.848Z,144110.44
2019-03-23T17:38:35.817Z,144057.53
2019-03-23T17:43:31.731Z,144057.53
2019-03-23T17:48:27.670Z,144041.09
2019-03-23T17:53:23.601Z,144042.25
2019-03-23T17:58:19.567Z,144034.06
2019-03-23T18:03:15.555Z,144045.77
2019-03-23T18:08:11.476Z,144064.56
2019-03-23T18:13:16.185Z,144066.92
2019-03-23T18:18:05.326Z,144009.39
2019-03-23T18:23:01.248Z,144035.22
2019-03-23T18:27:57.268Z,143946.00
2019-03-23T18:32:53.291Z,143914.31
2019-03-23T18:37:49.212Z,143904.91
2019-03-23T18:42:45.152Z,143920.14
2019-03-23T18:47:41.082Z,143936.61
2019-03-23T18:52:36.994Z,143913.09
2019-03-23T18:57:32.914Z,143928.38
2019-03-23T19:02:28.909Z,143884.94
2019-03-23T19:07:24.858Z,143895.53
2019-03-23T19:12:20.812Z,143786.38
2019-03-23T19:17:16.885Z,143768.75
2019-03-23T19:22:12.813Z,143720.62
2019-03-23T19:27:08.740Z,143693.62
2019-03-23T19:32:04.676Z,143701.84
2019-03-23T19:37:00.642Z,143681.87
2019-03-23T19:41:56.555Z,143637.31
2019-03-23T19:46:52.562Z,143644.34
2019-03-23T19:51:48.553Z,143653.72
2019-03-23T19:56:44.477Z,143596.28
2019-03-23T20:01:40.478Z,143602.16
2019-03-23T20:06:36.476Z,143606.86
2019-03-23T20:11:32.536Z,143633.81
2019-03-23T20:16:28.655Z,143620.91
2019-03-23T20:21:24.601Z,143624.42
2019-03-23T20:26:20.533Z,143604.50
2019-03-23T20:31:16.473Z,143622.06
2019-03-23T20:36:12.387Z,143602.16
2019-03-23T20:41:08.369Z,143588.09
2019-03-23T20:46:04.389Z,143550.58
2019-03-23T20:51:00.737Z,143525.95
2019-03-23T20:55:56.668Z,143530.61
2019-03-23T21:00:52.690Z,143513.06
2019-03-23T21:05:48.656Z,143493.09
2019-03-23T21:10:44.596Z,143466.17
2019-03-23T21:15:40.743Z,143466.17
2019-03-23T21:20:36.662Z,143449.72
2019-03-23T21:25:32.594Z,143438.03
2019-03-23T21:30:28.532Z,143426.31
2019-03-23T21:35:24.447Z,143381.78
2019-03-23T21:40:20.438Z,143344.30
2019-03-23T21:45:17.160Z,143327.91
2019-03-23T21:50:13.178Z,143317.33
2019-03-23T21:55:09.470Z,143277.44
2019-03-23T22:00:06.449Z,143271.63
2019-03-23T22:05:04.282Z,143255.19
2019-03-23T22:10:00.353Z,143234.14
2019-03-23T22:14:56.899Z,143224.78
2019-03-23T22:19:52.848Z,143209.55
2019-03-23T22:24:48.792Z,143190.81
2019-03-23T22:29:44.704Z,143182.59
2019-03-23T22:34:40.623Z,143176.73
2019-03-23T22:39:36.543Z,143163.86
2019-03-23T22:44:32.455Z,143143.97
2019-03-23T22:49:28.394Z,143138.11
2019-03-23T22:54:25.030Z,143141.62
2019-03-23T22:59:21.146Z,143142.78
2019-03-23T23:04:17.083Z,143125.23
2019-03-23T23:09:13.122Z,143112.37
2019-03-23T23:14:09.039Z,143087.78
2019-03-23T23:19:04.952Z,143081.92
2019-03-23T23:24:11.888Z,143063.19
2019-03-23T23:29:09.720Z,143016.38
2019-03-23T23:34:05.631Z,143023.39
2019-03-23T23:39:01.645Z,143023.39
2019-03-23T23:43:57.658Z,143002.36
2019-03-23T23:48:53.577Z,142960.22
2019-03-23T23:58:44.512Z,142945.00
